sensor_id;sensor_type;location;lat;lon;timestamp;pressure;altitude;pressure_sealevel;temperature;humidity
59194;BME280;44967;48.598;15.650;2023-04-06T00:00:52;98599.47;;;-1.51;62.01
59194;BME280;44967;48.598;15.650;2023-04-06T00:03:18;98590.31;;;-1.74;62.73
59194;BME280;44967;48.598;15.650;2023-04-06T00:05:44;98582.66;;;-1.68;63.30
59194;BME280;44967;48.598;15.650;2023-04-06T00:08:09;98586.91;;;-1.72;63.11
59194;BME280;44967;48.598;15.650;2023-04-06T00:10:36;98583.66;;;-1.63;63.62
59194;BME280;44967;48.598;15.650;2023-04-06T00:13:02;98589.56;;;-1.69;63.01
59194;BME280;44967;48.598;15.650;2023-04-06T00:15:27;98585.25;;;-1.68;63.25
59194;BME280;44967;48.598;15.650;2023-04-06T00:17:53;98583.66;;;-1.63;62.79
59194;BME280;44967;48.598;15.650;2023-04-06T00:20:19;98588.19;;;-1.53;63.21
59194;BME280;44967;48.598;15.650;2023-04-06T00:22:45;98580.41;;;-1.53;63.84
59194;BME280;44967;48.598;15.650;2023-04-06T00:25:11;98582.84;;;-1.61;63.62
59194;BME280;44967;48.598;15.650;2023-04-06T00:27:37;98579.56;;;-1.52;63.30
59194;BME280;44967;48.598;15.650;2023-04-06T00:30:04;98582.78;;;-1.64;63.24
59194;BME280;44967;48.598;15.650;2023-04-06T00:32:31;98586.25;;;-1.62;62.79
59194;BME280;44967;48.598;15.650;2023-04-06T00:34:57;98583.66;;;-1.63;63.56
59194;BME280;44967;48.598;15.650;2023-04-06T00:37:23;98585.53;;;-1.56;62.77
59194;BME280;44967;48.598;15.650;2023-04-06T00:39:49;98578.59;;;-1.57;62.76
59194;BME280;44967;48.598;15.650;2023-04-06T00:42:17;98574.91;;;-1.68;63.36
59194;BME280;44967;48.598;15.650;2023-04-06T00:44:55;98576.81;;;-1.60;62.67
59194;BME280;44967;48.598;15.650;2023-04-06T00:47:22;98574.91;;;-1.68;62.96
59194;BME280;44967;48.598;15.650;2023-04-06T00:49:48;98575.03;;;-1.62;62.58
59194;BME280;44967;48.598;15.650;2023-04-06T00:52:14;98578.41;;;-1.66;62.55
59194;BME280;44967;48.598;15.650;2023-04-06T00:54:40;98571.44;;;-1.69;62.50
59194;BME280;44967;48.598;15.650;2023-04-06T00:57:06;98569.44;;;-1.80;63.15
59194;BME280;44967;48.598;15.650;2023-04-06T00:59:32;98572.75;;;-1.87;63.07
59194;BME280;44967;48.598;15.650;2023-04-06T01:01:57;98567.69;;;-1.81;63.08
59194;BME280;44967;48.598;15.650;2023-04-06T01:04:23;98562.44;;;-1.84;63.56
59194;BME280;44967;48.598;15.650;2023-04-06T01:06:50;98569.31;;;-1.86;63.33
59194;BME280;44967;48.598;15.650;2023-04-06T01:09:17;98559.44;;;-2.03;63.17
59194;BME280;44967;48.598;15.650;2023-04-06T01:11:43;98572.69;;;-1.91;62.93
59194;BME280;44967;48.598;15.650;2023-04-06T01:14:09;98565.63;;;-1.98;64.07
59194;BME280;44967;48.598;15.650;2023-04-06T01:16:35;98566.22;;;-2.08;64.04
59194;BME280;44967;48.598;15.650;2023-04-06T01:19:06;98562.03;;;-2.03;63.60
59194;BME280;44967;48.598;15.650;2023-04-06T01:21:32;98565.47;;;-2.04;63.76
59194;BME280;44967;48.598;15.650;2023-04-06T01:23:57;98565.47;;;-2.04;63.56
59194;BME280;44967;48.598;15.650;2023-04-06T01:26:23;98570.56;;;-2.07;63.78
59194;BME280;44967;48.598;15.650;2023-04-06T01:28:49;98567.09;;;-2.07;63.64
59194;BME280;44967;48.598;15.650;2023-04-06T01:31:15;98569.53;;;-2.13;64.40
59194;BME280;44967;48.598;15.650;2023-04-06T01:33:41;98569.47;;;-2.16;63.44
59194;BME280;44967;48.598;15.650;2023-04-06T01:36:07;98568.59;;;-2.17;63.62
59194;BME280;44967;48.598;15.650;2023-04-06T01:38:32;98565.16;;;-2.16;63.96
59194;BME280;44967;48.598;15.650;2023-04-06T01:40:58;98559.38;;;-2.06;63.51
59194;BME280;44967;48.598;15.650;2023-04-06T01:43:23;98565.41;;;-2.05;63.43
59194;BME280;44967;48.598;15.650;2023-04-06T01:45:49;98568.69;;;-2.14;63.73
59194;BME280;44967;48.598;15.650;2023-04-06T01:48:16;98571.00;;;-2.24;64.11
59194;BME280;44967;48.598;15.650;2023-04-06T01:50:42;98563.97;;;-2.30;64.92
59194;BME280;44967;48.598;15.650;2023-04-06T01:53:08;98567.75;;;-2.17;64.30
59194;BME280;44967;48.598;15.650;2023-04-06T01:55:33;98565.81;;;-2.26;64.50
59194;BME280;44967;48.598;15.650;2023-04-06T01:57:59;98566.13;;;-2.12;63.89
59194;BME280;44967;48.598;15.650;2023-04-06T02:00:25;98565.25;;;-2.13;64.44
59194;BME280;44967;48.598;15.650;2023-04-06T02:02:50;98562.66;;;-2.13;63.90
59194;BME280;44967;48.598;15.650;2023-04-06T02:05:16;98568.34;;;-2.27;64.97
59194;BME280;44967;48.598;15.650;2023-04-06T02:07:42;98565.72;;;-2.29;65.35
59194;BME280;44967;48.598;15.650;2023-04-06T02:10:12;98560.69;;;-2.23;65.17
59194;BME280;44967;48.598;15.650;2023-04-06T02:12:38;98568.22;;;-2.32;65.14
59194;BME280;44967;48.598;15.650;2023-04-06T02:15:04;98564.00;;;-2.28;65.05
59194;BME280;44967;48.598;15.650;2023-04-06T02:17:30;98567.34;;;-2.34;65.03
59194;BME280;44967;48.598;15.650;2023-04-06T02:19:56;98560.28;;;-2.40;65.09
59194;BME280;44967;48.598;15.650;2023-04-06T02:22:22;98568.84;;;-2.42;65.15
59194;BME280;44967;48.598;15.650;2023-04-06T02:24:47;98562.63;;;-2.49;65.83
59194;BME280;44967;48.598;15.650;2023-04-06T02:27:14;98559.34;;;-2.43;65.17
59194;BME280;44967;48.598;15.650;2023-04-06T02:29:40;98561.56;;;-2.58;66.25
59194;BME280;44967;48.598;15.650;2023-04-06T02:32:05;98558.91;;;-2.61;66.21
59194;BME280;44967;48.598;15.650;2023-04-06T02:34:31;98546.22;;;-2.51;65.41
59194;BME280;44967;48.598;15.650;2023-04-06T02:36:57;98559.03;;;-2.55;66.12
59194;BME280;44967;48.598;15.650;2023-04-06T02:39:23;98555.63;;;-2.54;66.47
59194;BME280;44967;48.598;15.650;2023-04-06T02:41:49;98546.28;;;-2.49;65.75
59194;BME280;44967;48.598;15.650;2023-04-06T02:44:14;98554.03;;;-2.48;65.22
59194;BME280;44967;48.598;15.650;2023-04-06T02:46:40;98547.22;;;-2.44;65.25
59194;BME280;44967;48.598;15.650;2023-04-06T02:49:06;98541.91;;;-2.50;65.21
59194;BME280;44967;48.598;15.650;2023-04-06T02:51:31;98549.44;;;-2.61;66.23
59194;BME280;44967;48.598;15.650;2023-04-06T02:53:58;98548.69;;;-2.55;65.65
59194;BME280;44967;48.598;15.650;2023-04-06T02:56:24;98545.00;;;-2.65;65.40
59194;BME280;44967;48.598;15.650;2023-04-06T02:58:50;98543.38;;;-2.94;65.21
59194;BME280;44967;48.598;15.650;2023-04-06T03:01:16;98542.31;;;-2.68;65.96
59194;BME280;44967;48.598;15.650;2023-04-06T03:03:42;98539.94;;;-2.60;65.55
59194;BME280;44967;48.598;15.650;2023-04-06T03:06:07;98547.03;;;-2.53;65.71
59194;BME280;44967;48.598;15.650;2023-04-06T03:08:33;98546.63;;;-2.68;65.44
59194;BME280;44967;48.598;15.650;2023-04-06T03:10:58;98554.25;;;-2.74;65.80
59194;BME280;44967;48.598;15.650;2023-04-06T03:13:24;98559.41;;;-2.74;66.24
59194;BME280;44967;48.598;15.650;2023-04-06T03:15:50;98551.50;;;-2.80;65.98
59194;BME280;44967;48.598;15.650;2023-04-06T03:18:20;98557.50;;;-2.81;65.25
59194;BME280;44967;48.598;15.650;2023-04-06T03:20:46;98562.56;;;-2.86;66.41
59194;BME280;44967;48.598;15.650;2023-04-06T03:23:12;98562.69;;;-2.81;65.84
59194;BME280;44967;48.598;15.650;2023-04-06T03:25:38;98568.72;;;-2.81;65.92
59194;BME280;44967;48.598;15.650;2023-04-06T03:28:05;98570.56;;;-2.75;66.44
59194;BME280;44967;48.598;15.650;2023-04-06T03:30:30;98567.22;;;-2.73;66.26
59194;BME280;44967;48.598;15.650;2023-04-06T03:32:56;98564.63;;;-2.73;65.84
59194;BME280;44967;48.598;15.650;2023-04-06T03:35:22;98563.56;;;-2.79;65.80
59194;BME280;44967;48.598;15.650;2023-04-06T03:37:47;98557.78;;;-2.71;66.31
59194;BME280;44967;48.598;15.650;2023-04-06T03:40:13;98562.56;;;-2.86;65.65
59194;BME280;44967;48.598;15.650;2023-04-06T03:42:39;98571.13;;;-2.89;66.50
59194;BME280;44967;48.598;15.650;2023-04-06T03:45:05;98566.38;;;-3.05;67.11
59194;BME280;44967;48.598;15.650;2023-04-06T03:47:31;98569.28;;;-2.93;66.26
59194;BME280;44967;48.598;15.650;2023-04-06T03:49:56;98573.78;;;-2.86;65.77
59194;BME280;44967;48.598;15.650;2023-04-06T03:52:22;98578.88;;;-2.89;66.09
59194;BME280;44967;48.598;15.650;2023-04-06T03:54:48;98573.53;;;-2.95;66.81
59194;BME280;44967;48.598;15.650;2023-04-06T03:57:14;98583.59;;;-3.04;67.72
59194;BME280;44967;48.598;15.650;2023-04-06T03:59:40;98588.97;;;-2.96;66.44
59194;BME280;44967;48.598;15.650;2023-04-06T04:02:06;98592.09;;;-3.08;67.00
59194;BME280;44967;48.598;15.650;2023-04-06T04:04:32;98590.47;;;-3.06;66.82
59194;BME280;44967;48.598;15.650;2023-04-06T04:06:58;98590.19;;;-3.15;66.99
59194;BME280;44967;48.598;15.650;2023-04-06T04:09:23;98591.25;;;-3.08;68.13
59194;BME280;44967;48.598;15.650;2023-04-06T04:11:49;98585.50;;;-2.98;66.43
59194;BME280;44967;48.598;15.650;2023-04-06T04:14:15;98587.31;;;-2.94;67.16
59194;BME280;44967;48.598;15.650;2023-04-06T04:16:40;98591.34;;;-3.04;67.26
59194;BME280;44967;48.598;15.650;2023-04-06T04:19:10;98593.72;;;-3.13;67.31
59194;BME280;44967;48.598;15.650;2023-04-06T04:21:43;98586.50;;;-3.23;67.56
59194;BME280;44967;48.598;15.650;2023-04-06T04:24:09;98588.63;;;-3.10;67.45
59194;BME280;44967;48.598;15.650;2023-04-06T04:26:35;98590.47;;;-3.06;66.86
59194;BME280;44967;48.598;15.650;2023-04-06T04:29:01;98590.47;;;-3.06;66.78
59194;BME280;44967;48.598;15.650;2023-04-06T04:31:27;98591.28;;;-3.07;67.35
59194;BME280;44967;48.598;15.650;2023-04-06T04:33:52;98591.00;;;-3.16;66.90
59194;BME280;44967;48.598;15.650;2023-04-06T04:36:18;98593.72;;;-3.13;67.79
59194;BME280;44967;48.598;15.650;2023-04-06T04:38:44;98593.56;;;-3.17;67.99
59194;BME280;44967;48.598;15.650;2023-04-06T04:41:09;98597.56;;;-3.28;68.55
59194;BME280;44967;48.598;15.650;2023-04-06T04:43:35;98594.09;;;-3.29;68.42
59194;BME280;44967;48.598;15.650;2023-04-06T04:46:00;98604.59;;;-3.23;68.40
59194;BME280;44967;48.598;15.650;2023-04-06T04:48:26;98594.78;;;-3.36;68.73
59194;BME280;44967;48.598;15.650;2023-04-06T04:50:52;98599.50;;;-3.21;68.29
59194;BME280;44967;48.598;15.650;2023-04-06T04:53:20;98592.47;;;-3.25;66.89
59194;BME280;44967;48.598;15.650;2023-04-06T04:55:46;98590.91;;;-3.20;67.22
59194;BME280;44967;48.598;15.650;2023-04-06T04:58:11;98591.81;;;-3.18;67.41
59194;BME280;44967;48.598;15.650;2023-04-06T05:00:44;98598.75;;;-3.17;68.02
59194;BME280;44967;48.598;15.650;2023-04-06T05:03:31;98602.41;;;-3.09;67.54
59194;BME280;44967;48.598;15.650;2023-04-06T05:05:58;98603.31;;;-3.07;68.00
59194;BME280;44967;48.598;15.650;2023-04-06T05:08:23;98596.44;;;-3.08;68.02
59194;BME280;44967;48.598;15.650;2023-04-06T05:10:49;98598.13;;;-3.09;68.10
59194;BME280;44967;48.598;15.650;2023-04-06T05:13:16;98601.81;;;-3.01;67.44
59194;BME280;44967;48.598;15.650;2023-04-06T05:15:42;98607.88;;;-2.99;68.22
59194;BME280;44967;48.598;15.650;2023-04-06T05:18:08;98605.69;;;-2.85;68.16
59194;BME280;44967;48.598;15.650;2023-04-06T05:20:35;98605.00;;;-2.78;68.01
59194;BME280;44967;48.598;15.650;2023-04-06T05:23:01;98614.84;;;-2.65;68.64
59194;BME280;44967;48.598;15.650;2023-04-06T05:25:27;98611.88;;;-2.78;68.29
59194;BME280;44967;48.598;15.650;2023-04-06T05:27:52;98605.75;;;-2.82;69.42
59194;BME280;44967;48.598;15.650;2023-04-06T05:30:18;98607.53;;;-2.79;69.03
59194;BME280;44967;48.598;15.650;2023-04-06T05:32:45;98603.09;;;-2.85;69.54
59194;BME280;44967;48.598;15.650;2023-04-06T05:35:11;98606.84;;;-2.74;69.23
59194;BME280;44967;48.598;15.650;2023-04-06T05:37:37;98607.91;;;-2.66;68.58
59194;BME280;44967;48.598;15.650;2023-04-06T05:40:03;98600.41;;;-2.55;67.91
59194;BME280;44967;48.598;15.650;2023-04-06T05:42:42;98594.91;;;-2.34;68.09
59194;BME280;44967;48.598;15.650;2023-04-06T05:45:09;98599.41;;;-2.27;66.96
59194;BME280;44967;48.598;15.650;2023-04-06T05:47:36;98596.00;;;-2.25;66.61
59194;BME280;44967;48.598;15.650;2023-04-06T05:50:02;98599.47;;;-2.24;66.00
59194;BME280;44967;48.598;15.650;2023-04-06T05:52:28;98595.22;;;-2.22;66.20
59194;BME280;44967;48.598;15.650;2023-04-06T05:54:54;98599.75;;;-2.14;66.12
59194;BME280;44967;48.598;15.650;2023-04-06T05:57:20;98601.22;;;-1.87;66.77
59194;BME280;44967;48.598;15.650;2023-04-06T05:59:45;98605.09;;;-1.69;67.39
59194;BME280;44967;48.598;15.650;2023-04-06T06:02:11;98608.94;;;-1.52;67.66
59194;BME280;44967;48.598;15.650;2023-04-06T06:04:37;98608.13;;;-1.49;67.21
59194;BME280;44967;48.598;15.650;2023-04-06T06:07:02;98608.41;;;-1.37;67.43
59194;BME280;44967;48.598;15.650;2023-04-06T06:09:28;98605.25;;;-1.22;66.70
59194;BME280;44967;48.598;15.650;2023-04-06T06:11:54;98597.59;;;-1.16;66.44
59194;BME280;44967;48.598;15.650;2023-04-06T06:14:19;98592.63;;;-1.06;66.07
59194;BME280;44967;48.598;15.650;2023-04-06T06:16:45;98597.22;;;-0.92;65.73
59194;BME280;44967;48.598;15.650;2023-04-06T06:19:11;98593.78;;;-0.91;64.43
59194;BME280;44967;48.598;15.650;2023-04-06T06:21:37;98594.66;;;-0.91;64.37
59194;BME280;44967;48.598;15.650;2023-04-06T06:24:02;98586.19;;;-0.81;64.06
59194;BME280;44967;48.598;15.650;2023-04-06T06:26:28;98587.31;;;-0.67;64.04
59194;BME280;44967;48.598;15.650;2023-04-06T06:28:54;98591.00;;;-0.54;63.77
59194;BME280;44967;48.598;15.650;2023-04-06T06:31:20;98590.34;;;-0.44;63.70
59194;BME280;44967;48.598;15.650;2023-04-06T06:33:48;98584.44;;;-0.34;64.55
59194;BME280;44967;48.598;15.650;2023-04-06T06:36:17;98587.16;;;-0.28;64.28
59194;BME280;44967;48.598;15.650;2023-04-06T06:38:43;98591.66;;;-0.18;63.65
59194;BME280;44967;48.598;15.650;2023-04-06T06:41:09;98591.72;;;-0.12;63.25
59194;BME280;44967;48.598;15.650;2023-04-06T06:43:34;98587.63;;;0.01;63.27
59194;BME280;44967;48.598;15.650;2023-04-06T06:46:00;98587.81;;;0.12;62.97
59194;BME280;44967;48.598;15.650;2023-04-06T06:48:26;98590.50;;;0.21;63.48
59194;BME280;44967;48.598;15.650;2023-04-06T06:50:52;98592.53;;;0.38;63.07
59194;BME280;44967;48.598;15.650;2023-04-06T06:53:17;98589.13;;;0.44;62.70
59194;BME280;44967;48.598;15.650;2023-04-06T06:55:43;98595.28;;;0.52;62.62
59194;BME280;44967;48.598;15.650;2023-04-06T06:58:11;98592.00;;;0.62;62.19
59194;BME280;44967;48.598;15.650;2023-04-06T07:00:38;98591.22;;;0.69;62.88
59194;BME280;44967;48.598;15.650;2023-04-06T07:03:03;98593.06;;;0.79;62.74
59194;BME280;44967;48.598;15.650;2023-04-06T07:05:29;98592.47;;;1.00;62.10
59194;BME280;44967;48.598;15.650;2023-04-06T07:07:55;98595.16;;;1.11;61.30
59194;BME280;44967;48.598;15.650;2023-04-06T07:10:21;98596.28;;;1.29;62.29
59194;BME280;44967;48.598;15.650;2023-04-06T07:12:47;98587.72;;;1.42;60.95
59194;BME280;44967;48.598;15.650;2023-04-06T07:15:13;98589.59;;;1.56;60.80
59194;BME280;44967;48.598;15.650;2023-04-06T07:17:39;98589.84;;;1.81;60.10
59194;BME280;44967;48.598;15.650;2023-04-06T07:20:06;98584.69;;;1.90;59.79
59194;BME280;44967;48.598;15.650;2023-04-06T07:22:32;98586.56;;;2.10;59.77
59194;BME280;44967;48.598;15.650;2023-04-06T07:24:58;98573.75;;;2.37;58.93
59194;BME280;44967;48.598;15.650;2023-04-06T07:27:24;98578.22;;;2.61;57.64
59194;BME280;44967;48.598;15.650;2023-04-06T07:29:50;98580.03;;;2.77;57.86
59194;BME280;44967;48.598;15.650;2023-04-06T07:32:15;98579.31;;;3.04;56.30
59194;BME280;44967;48.598;15.650;2023-04-06T07:34:41;98571.47;;;3.08;56.24
59194;BME280;44967;48.598;15.650;2023-04-06T07:37:06;98582.03;;;3.42;55.19
59194;BME280;44967;48.598;15.650;2023-04-06T07:39:32;98573.34;;;3.56;53.47
59194;BME280;44967;48.598;15.650;2023-04-06T07:41:57;98575.09;;;3.60;53.11
59194;BME280;44967;48.598;15.650;2023-04-06T07:44:23;98568.16;;;3.82;54.13
59194;BME280;44967;48.598;15.650;2023-04-06T07:46:48;98563.81;;;3.98;54.55
59194;BME280;44967;48.598;15.650;2023-04-06T07:49:14;98563.81;;;4.10;52.16
59194;BME280;44967;48.598;15.650;2023-04-06T07:51:39;98571.63;;;4.30;52.88
59194;BME280;44967;48.598;15.650;2023-04-06T07:54:05;98572.47;;;4.48;51.81
59194;BME280;44967;48.598;15.650;2023-04-06T07:56:31;98565.47;;;4.43;51.12
59194;BME280;44967;48.598;15.650;2023-04-06T07:58:56;98574.22;;;4.40;50.57
59194;BME280;44967;48.598;15.650;2023-04-06T08:01:27;98564.59;;;4.51;50.37
59194;BME280;44967;48.598;15.650;2023-04-06T08:03:53;98551.47;;;4.72;50.74
59194;BME280;44967;48.598;15.650;2023-04-06T08:06:20;98560.13;;;4.93;47.96
59194;BME280;44967;48.598;15.650;2023-04-06T08:08:46;98549.56;;;5.11;48.83
59194;BME280;44967;48.598;15.650;2023-04-06T08:11:12;98560.94;;;5.02;47.69
59194;BME280;44967;48.598;15.650;2023-04-06T08:13:37;98547.91;;;4.92;46.74
59194;BME280;44967;48.598;15.650;2023-04-06T08:16:03;98548.72;;;5.03;48.77
59194;BME280;44967;48.598;15.650;2023-04-06T08:18:29;98547.69;;;5.37;47.77
59194;BME280;44967;48.598;15.650;2023-04-06T08:20:55;98551.28;;;5.15;45.63
59194;BME280;44967;48.598;15.650;2023-04-06T08:23:21;98551.28;;;5.19;46.52
59194;BME280;44967;48.598;15.650;2023-04-06T08:25:47;98544.19;;;5.37;47.32
59194;BME280;44967;48.598;15.650;2023-04-06T08:28:12;98534.47;;;5.54;47.24
59194;BME280;44967;48.598;15.650;2023-04-06T08:30:42;98541.38;;;5.61;45.16
59194;BME280;44967;48.598;15.650;2023-04-06T08:33:09;98538.66;;;5.79;45.64
59194;BME280;44967;48.598;15.650;2023-04-06T08:35:35;98543.81;;;5.96;44.93
59194;BME280;44967;48.598;15.650;2023-04-06T08:38:01;98535.03;;;6.00;43.42
59194;BME280;44967;48.598;15.650;2023-04-06T08:40:27;98535.94;;;5.93;41.56
59194;BME280;44967;48.598;15.650;2023-04-06T08:42:55;98532.44;;;5.95;41.49
59194;BME280;44967;48.598;15.650;2023-04-06T08:45:22;98518.41;;;5.98;42.10
59194;BME280;44967;48.598;15.650;2023-04-06T08:47:49;98525.28;;;6.12;41.60
59194;BME280;44967;48.598;15.650;2023-04-06T08:50:16;98523.53;;;6.16;41.67
59194;BME280;44967;48.598;15.650;2023-04-06T08:52:43;98510.28;;;6.25;40.77
59194;BME280;44967;48.598;15.650;2023-04-06T08:55:09;98539.78;;;6.51;41.42
59194;BME280;44967;48.598;15.650;2023-04-06T08:57:36;98515.38;;;6.43;38.78
59194;BME280;44967;48.598;15.650;2023-04-06T09:00:02;98517.69;;;6.69;41.07
59194;BME280;44967;48.598;15.650;2023-04-06T09:02:28;98516.53;;;6.94;39.83
59194;BME280;44967;48.598;15.650;2023-04-06T09:04:54;98517.00;;;7.24;40.16
59194;BME280;44967;48.598;15.650;2023-04-06T09:07:21;98507.41;;;7.21;38.21
59194;BME280;44967;48.598;15.650;2023-04-06T09:09:46;98507.88;;;7.49;38.71
59194;BME280;44967;48.598;15.650;2023-04-06T09:12:29;98508.53;;;7.63;36.14
59194;BME280;44967;48.598;15.650;2023-04-06T09:14:56;98510.59;;;8.93;35.18
59194;BME280;44967;48.598;15.650;2023-04-06T09:17:30;98502.06;;;9.97;31.81
59194;BME280;44967;48.598;15.650;2023-04-06T09:19:58;98508.19;;;9.64;33.04
59194;BME280;44967;48.598;15.650;2023-04-06T09:22:24;98500.03;;;8.94;34.44
59194;BME280;44967;48.598;15.650;2023-04-06T09:24:53;98501.44;;;8.20;36.77
59194;BME280;44967;48.598;15.650;2023-04-06T09:27:35;98507.75;;;8.61;37.21
59194;BME280;44967;48.598;15.650;2023-04-06T09:30:11;98496.22;;;9.84;35.75
59194;BME280;44967;48.598;15.650;2023-04-06T09:35:11;98487.53;;;11.69;30.57
59194;BME280;44967;48.598;15.650;2023-04-06T09:37:37;98479.19;;;12.83;29.75
59194;BME280;44967;48.598;15.650;2023-04-06T09:40:06;98479.53;;;12.97;28.13
59194;BME280;44967;48.598;15.650;2023-04-06T09:42:33;98485.03;;;12.18;28.15
59194;BME280;44967;48.598;15.650;2023-04-06T09:45:01;98490.13;;;10.82;30.54
59194;BME280;44967;48.598;15.650;2023-04-06T09:47:32;98484.13;;;9.76;31.57
59194;BME280;44967;48.598;15.650;2023-04-06T09:50:00;98476.69;;;9.18;32.79
59194;BME280;44967;48.598;15.650;2023-04-06T09:52:36;98471.91;;;8.95;33.39
59194;BME280;44967;48.598;15.650;2023-04-06T09:55:04;98482.28;;;9.03;33.95
59194;BME280;44967;48.598;15.650;2023-04-06T09:57:52;98479.50;;;9.10;34.56
59194;BME280;44967;48.598;15.650;2023-04-06T10:00:21;98476.03;;;9.08;35.30
59194;BME280;44967;48.598;15.650;2023-04-06T10:07:59;98466.66;;;13.35;28.65
59194;BME280;44967;48.598;15.650;2023-04-06T10:10:28;98468.03;;;14.30;27.87
59194;BME280;44967;48.598;15.650;2023-04-06T10:12:54;98449.19;;;12.58;25.81
59194;BME280;44967;48.598;15.650;2023-04-06T10:15:21;98463.34;;;13.73;27.06
59194;BME280;44967;48.598;15.650;2023-04-06T10:17:47;98446.53;;;14.14;26.54
59194;BME280;44967;48.598;15.650;2023-04-06T10:20:22;98456.59;;;13.19;26.12
59194;BME280;44967;48.598;15.650;2023-04-06T10:25:55;98448.56;;;14.09;27.11
59194;BME280;44967;48.598;15.650;2023-04-06T10:28:21;98447.31;;;13.96;26.16
59194;BME280;44967;48.598;15.650;2023-04-06T10:30:47;98440.38;;;14.34;26.46
59194;BME280;44967;48.598;15.650;2023-04-06T10:33:14;98432.25;;;14.39;25.50
59194;BME280;44967;48.598;15.650;2023-04-06T10:35:40;98433.16;;;14.58;26.53
59194;BME280;44967;48.598;15.650;2023-04-06T10:38:06;98437.28;;;15.04;24.83
59194;BME280;44967;48.598;15.650;2023-04-06T10:40:36;98431.19;;;14.43;24.58
59194;BME280;44967;48.598;15.650;2023-04-06T10:43:12;98425.53;;;13.45;26.49
59194;BME280;44967;48.598;15.650;2023-04-06T10:45:39;98431.31;;;12.63;26.39
59194;BME280;44967;48.598;15.650;2023-04-06T10:48:15;98425.75;;;11.96;27.05
59194;BME280;44967;48.598;15.650;2023-04-06T10:50:43;98431.47;;;12.09;27.46
59194;BME280;44967;48.598;15.650;2023-04-06T10:53:10;98428.25;;;12.50;26.60
59194;BME280;44967;48.598;15.650;2023-04-06T10:55:39;98425.16;;;13.32;28.55
59194;BME280;44967;48.598;15.650;2023-04-06T10:58:08;98411.22;;;13.49;26.05
59194;BME280;44967;48.598;15.650;2023-04-06T11:00:34;98414.25;;;12.93;25.96
59194;BME280;44967;48.598;15.650;2023-04-06T11:03:00;98424.53;;;12.79;25.63
59194;BME280;44967;48.598;15.650;2023-04-06T11:05:27;98401.47;;;12.33;28.44
59194;BME280;44967;48.598;15.650;2023-04-06T11:07:53;98415.38;;;12.15;26.88
59194;BME280;44967;48.598;15.650;2023-04-06T11:10:22;98401.03;;;12.45;26.54
59194;BME280;44967;48.598;15.650;2023-04-06T11:12:54;98399.88;;;12.04;27.31
59194;BME280;44967;48.598;15.650;2023-04-06T11:15:20;98403.84;;;11.09;28.26
59194;BME280;44967;48.598;15.650;2023-04-06T11:17:46;98410.94;;;11.63;28.63
59194;BME280;44967;48.598;15.650;2023-04-06T11:20:11;98403.13;;;11.86;27.43
59194;BME280;44967;48.598;15.650;2023-04-06T11:22:51;98395.34;;;11.81;29.08
59194;BME280;44967;48.598;15.650;2023-04-06T11:25:20;98393.56;;;12.08;29.30
59194;BME280;44967;48.598;15.650;2023-04-06T11:27:46;98396.03;;;11.88;27.66
59194;BME280;44967;48.598;15.650;2023-04-06T11:30:13;98410.69;;;11.16;27.22
59194;BME280;44967;48.598;15.650;2023-04-06T11:32:41;98396.16;;;11.02;27.60
59194;BME280;44967;48.598;15.650;2023-04-06T11:35:11;98400.59;;;11.29;30.05
59194;BME280;44967;48.598;15.650;2023-04-06T11:37:37;98388.16;;;11.03;29.33
59194;BME280;44967;48.598;15.650;2023-04-06T11:40:07;98389.66;;;11.66;29.63
59194;BME280;44967;48.598;15.650;2023-04-06T11:42:34;98384.06;;;11.49;28.64
59194;BME280;44967;48.598;15.650;2023-04-06T11:45:00;98381.50;;;11.46;28.72
59194;BME280;44967;48.598;15.650;2023-04-06T11:47:29;98376.16;;;10.93;28.72
59194;BME280;44967;48.598;15.650;2023-04-06T11:49:55;98374.41;;;10.33;29.11
59194;BME280;44967;48.598;15.650;2023-04-06T11:52:27;98374.81;;;10.18;29.10
59194;BME280;44967;48.598;15.650;2023-04-06T11:54:54;98367.34;;;10.63;33.11
59194;BME280;44967;48.598;15.650;2023-04-06T11:57:22;98375.56;;;10.83;30.30
59194;BME280;44967;48.598;15.650;2023-04-06T11:59:51;98366.53;;;10.61;30.03
59194;BME280;44967;48.598;15.650;2023-04-06T12:02:16;98367.84;;;10.76;31.09
59194;BME280;44967;48.598;15.650;2023-04-06T12:04:43;98372.38;;;11.02;31.29
59194;BME280;44967;48.598;15.650;2023-04-06T12:07:09;98364.47;;;11.54;32.11
59194;BME280;44967;48.598;15.650;2023-04-06T12:09:35;98367.22;;;11.51;30.06
59194;BME280;44967;48.598;15.650;2023-04-06T12:12:01;98371.47;;;11.57;29.40
59194;BME280;44967;48.598;15.650;2023-04-06T12:14:27;98361.63;;;11.06;28.97
59194;BME280;44967;48.598;15.650;2023-04-06T12:16:52;98361.66;;;10.77;30.19
59194;BME280;44967;48.598;15.650;2023-04-06T12:19:18;98358.06;;;10.79;30.25
59194;BME280;44967;48.598;15.650;2023-04-06T12:21:43;98356.00;;;10.89;31.04
59194;BME280;44967;48.598;15.650;2023-04-06T12:24:09;98361.16;;;10.94;30.65
59194;BME280;44967;48.598;15.650;2023-04-06T12:26:35;98360.28;;;10.93;30.85
59194;BME280;44967;48.598;15.650;2023-04-06T12:29:02;98354.13;;;11.20;31.65
59194;BME280;44967;48.598;15.650;2023-04-06T12:31:35;98355.47;;;11.33;31.56
59194;BME280;44967;48.598;15.650;2023-04-06T12:34:02;98345.09;;;11.00;30.87
59194;BME280;44967;48.598;15.650;2023-04-06T12:36:28;98344.31;;;10.96;31.99
59194;BME280;44967;48.598;15.650;2023-04-06T12:38:54;98340.66;;;10.72;30.12
59194;BME280;44967;48.598;15.650;2023-04-06T12:41:19;98341.88;;;10.90;31.04
59194;BME280;44967;48.598;15.650;2023-04-06T12:43:45;98346.03;;;10.69;30.29
59194;BME280;44967;48.598;15.650;2023-04-06T12:46:12;98333.56;;;10.13;31.05
59194;BME280;44967;48.598;15.650;2023-04-06T12:48:38;98327.41;;;10.12;31.05
59194;BME280;44967;48.598;15.650;2023-04-06T12:51:05;98318.59;;;10.13;31.33
59194;BME280;44967;48.598;15.650;2023-04-06T12:53:31;98336.13;;;10.76;31.38
59194;BME280;44967;48.598;15.650;2023-04-06T12:55:57;98326.16;;;10.56;31.11
59194;BME280;44967;48.598;15.650;2023-04-06T12:58:23;98329.53;;;10.61;30.77
59194;BME280;44967;48.598;15.650;2023-04-06T13:00:52;98328.09;;;10.79;32.69